Time;durP1;ratioP1;P1;durP2;ratioP2;P2;SDS_P1;SDS_P2;PMS_P1;PMS_P2;Temp;Humidity;BMP_temperature;BMP_pressure;BME280_temperature;BME280_humidity;BME280_pressure;Samples;Min_cycle;Max_cycle;Signal;HPM_P1;HPM_P2
2021/11/01 00:00:34;;;;;;;16.98;1.70;;;10.30;99.90;;;;;;5063991;28;20094;-51
2021/11/01 00:03:00;;;;;;;7.78;1.77;;;10.30;99.90;;;;;;5066147;28;20040;-59
2021/11/01 00:05:26;;;;;;;9.90;1.90;;;10.30;99.90;;;;;;5067909;28;20025;-50
2021/11/01 00:07:52;;;;;;;19.15;2.05;;;10.20;99.90;;;;;;5067881;28;20530;-56
2021/11/01 00:10:19;;;;;;;12.05;2.28;;;10.20;99.90;;;;;;5063768;28;20071;-58
2021/11/01 00:12:45;;;;;;;9.82;1.85;;;10.10;99.90;;;;;;5063041;28;20074;-58
2021/11/01 00:15:11;;;;;;;14.55;2.38;;;10.10;99.90;;;;;;5064011;28;20040;-56
2021/11/01 00:17:38;;;;;;;15.48;2.30;;;10.00;99.90;;;;;;5065392;28;20086;-55
2021/11/01 00:20:06;;;;;;;10.25;1.50;;;10.00;99.90;;;;;;5060555;28;20021;-51
2021/11/01 00:22:33;;;;;;;8.63;1.92;;;10.00;99.90;;;;;;5062923;28;20029;-53
2021/11/01 00:24:59;;;;;;;11.82;1.65;;;9.90;99.90;;;;;;5061149;28;20057;-49
2021/11/01 00:27:25;;;;;;;13.48;2.03;;;9.90;99.90;;;;;;5061072;28;20033;-54
2021/11/01 00:29:50;;;;;;;19.75;2.10;;;9.80;99.90;;;;;;5058481;28;20395;-58
2021/11/01 00:32:16;;;;;;;6.80;1.95;;;9.80;99.90;;;;;;5070971;28;20096;-53
2021/11/01 00:34:42;;;;;;;12.57;2.03;;;9.80;99.90;;;;;;5075869;28;20029;-53
2021/11/01 00:37:08;;;;;;;21.85;4.70;;;9.80;99.90;;;;;;5068860;28;20051;-58
2021/11/01 00:39:34;;;;;;;9.75;2.13;;;9.80;99.90;;;;;;5066058;28;20017;-56
2021/11/01 00:42:00;;;;;;;16.25;3.47;;;9.70;99.90;;;;;;5065224;28;20491;-53
2021/11/01 00:44:26;;;;;;;21.98;5.53;;;9.70;99.90;;;;;;5060617;28;20453;-57
2021/11/01 00:46:52;;;;;;;25.63;4.63;;;9.70;99.90;;;;;;5067552;28;20078;-55
2021/11/01 00:49:18;;;;;;;17.05;3.55;;;9.60;99.90;;;;;;5062910;28;20025;-59
2021/11/01 00:51:44;;;;;;;18.42;3.15;;;9.60;99.90;;;;;;5061437;28;20669;-56
2021/11/01 00:54:12;;;;;;;11.80;3.17;;;9.50;99.90;;;;;;5063279;28;20509;-57
2021/11/01 00:56:38;;;;;;;24.90;5.60;;;9.50;99.90;;;;;;5064324;28;20029;-58
2021/11/01 00:59:04;;;;;;;20.67;6.63;;;9.50;99.90;;;;;;5061175;28;20016;-57
2021/11/01 01:01:32;;;;;;;21.25;6.72;;;9.50;99.90;;;;;;5067799;28;20048;-56
2021/11/01 01:03:58;;;;;;;17.38;5.13;;;9.50;99.90;;;;;;5062787;28;20021;-54
2021/11/01 01:06:24;;;;;;;22.70;4.30;;;9.50;99.90;;;;;;5061758;28;20021;-54
2021/11/01 01:08:50;;;;;;;17.10;2.63;;;9.50;99.90;;;;;;5066843;28;20104;-51
2021/11/01 01:11:15;;;;;;;14.45;2.90;;;9.50;99.90;;;;;;5063575;28;20051;-57
2021/11/01 01:13:41;;;;;;;11.57;2.38;;;9.50;99.90;;;;;;5067554;28;20029;-57
2021/11/01 01:18:47;;;;;;;21.48;2.08;;;9.50;99.90;;;;;;5059162;28;20045;-54
2021/11/01 01:23:58;;;;;;;21.42;2.38;;;9.60;99.90;;;;;;5063605;28;20036;-57
2021/11/01 01:26:24;;;;;;;28.17;2.15;;;9.60;99.90;;;;;;5064467;28;20050;-56
2021/11/01 01:28:50;;;;;;;27.83;2.17;;;9.60;99.90;;;;;;5063350;28;20267;-59
2021/11/01 01:31:16;;;;;;;15.45;3.35;;;9.60;99.90;;;;;;5063331;28;20171;-58
2021/11/01 01:33:42;;;;;;;21.25;2.58;;;9.60;99.90;;;;;;5062417;28;20032;-55
2021/11/01 01:36:08;;;;;;;18.80;2.05;;;9.60;99.90;;;;;;5060822;28;20021;-56
2021/11/01 01:38:34;;;;;;;11.07;3.15;;;9.60;99.90;;;;;;5061273;28;20051;-56
2021/11/01 01:41:11;;;;;;;11.57;2.25;;;9.60;99.90;;;;;;5065917;28;20029;-59
2021/11/01 01:43:36;;;;;;;21.63;2.80;;;9.70;99.90;;;;;;5060430;28;20514;-58
2021/11/01 01:46:02;;;;;;;29.65;3.20;;;9.70;99.90;;;;;;5063238;28;20135;-59
2021/11/01 01:48:28;;;;;;;30.48;3.08;;;9.70;99.90;;;;;;5064779;28;20434;-59
2021/11/01 01:50:53;;;;;;;19.17;2.25;;;9.70;99.90;;;;;;5063087;28;20085;-57
2021/11/01 01:53:23;;;;;;;25.35;3.17;;;9.70;99.90;;;;;;5061363;28;20029;-58
2021/11/01 01:55:50;;;;;;;25.05;3.45;;;9.70;99.90;;;;;;5060659;28;20025;-56
2021/11/01 01:58:16;;;;;;;18.45;3.20;;;9.70;99.90;;;;;;5065843;28;20044;-59
2021/11/01 02:00:57;;;;;;;18.77;2.20;;;9.70;99.90;;;;;;5065144;28;20410;-57
2021/11/01 02:03:23;;;;;;;19.95;2.67;;;9.70;99.90;;;;;;5070390;28;20062;-58
2021/11/01 02:06:08;;;;;;;25.67;2.30;;;9.70;99.90;;;;;;5065608;28;20017;-59
2021/11/01 02:08:45;;;;;;;15.73;2.40;;;9.70;99.90;;;;;;5066985;28;20074;-57
2021/11/01 02:11:21;;;;;;;18.00;2.13;;;9.70;99.90;;;;;;5064926;28;20024;-60
2021/11/01 02:13:50;;;;;;;17.55;2.08;;;9.60;99.90;;;;;;5068505;28;20476;-59
2021/11/01 02:16:16;;;;;;;17.65;2.63;;;9.60;99.90;;;;;;5067611;28;20025;-58
2021/11/01 02:18:50;;;;;;;29.27;4.18;;;9.60;99.90;;;;;;5071136;28;20029;-58
2021/11/01 02:21:17;;;;;;;12.45;2.20;;;9.60;99.90;;;;;;5066941;28;20039;-57
2021/11/01 02:24:04;;;;;;;38.90;3.75;;;9.60;99.90;;;;;;5067233;28;20179;-57
2021/11/01 02:26:30;;;;;;;14.40;2.13;;;9.60;99.90;;;;;;5068606;28;20013;-58
2021/11/01 02:28:57;;;;;;;20.35;5.55;;;9.50;99.90;;;;;;5072642;28;20056;-57
2021/11/01 02:31:23;;;;;;;19.77;2.47;;;9.50;99.90;;;;;;5070197;28;20020;-57
2021/11/01 02:33:50;;;;;;;6.75;2.03;;;9.50;99.90;;;;;;5068481;28;20431;-60
2021/11/01 02:36:17;;;;;;;19.52;2.83;;;9.50;99.90;;;;;;5070865;28;21028;-56
2021/11/01 02:38:44;;;;;;;18.80;2.55;;;9.50;99.90;;;;;;5070085;28;20035;-54
2021/11/01 02:41:21;;;;;;;12.50;2.42;;;9.50;99.90;;;;;;5069928;28;20480;-55
2021/11/01 02:43:51;;;;;;;12.63;3.13;;;9.40;99.90;;;;;;5066032;28;20478;-54
2021/11/01 02:46:17;;;;;;;11.85;2.25;;;9.30;99.90;;;;;;5065791;28;20020;-53
2021/11/01 02:48:49;;;;;;;6.82;1.73;;;9.30;99.90;;;;;;5065272;28;20032;-57
2021/11/01 02:51:17;;;;;;;9.50;1.60;;;9.20;99.90;;;;;;5064234;28;20033;-55
2021/11/01 02:53:44;;;;;;;8.43;1.40;;;9.30;99.90;;;;;;5069857;28;20056;-56
2021/11/01 02:56:10;;;;;;;9.35;2.08;;;9.20;99.90;;;;;;5071658;28;20290;-58
2021/11/01 02:58:39;;;;;;;15.27;3.50;;;9.20;99.90;;;;;;5067664;28;20466;-58
2021/11/01 03:01:06;;;;;;;9.00;2.10;;;9.20;99.90;;;;;;5069726;28;20059;-57
2021/11/01 03:03:32;;;;;;;27.48;3.45;;;9.20;99.90;;;;;;5070467;28;20029;-54
2021/11/01 03:05:59;;;;;;;15.63;3.58;;;9.20;99.90;;;;;;5070639;28;20036;-59
2021/11/01 03:08:26;;;;;;;9.98;2.00;;;9.20;99.90;;;;;;5071788;28;20028;-58
2021/11/01 03:10:53;;;;;;;15.57;2.53;;;9.20;99.90;;;;;;5069673;28;20486;-57
2021/11/01 03:13:19;;;;;;;15.50;2.65;;;9.10;99.90;;;;;;5071247;28;20055;-60
2021/11/01 03:15:45;;;;;;;14.32;2.53;;;9.10;99.90;;;;;;5071293;28;20468;-58
2021/11/01 03:18:11;;;;;;;15.60;2.40;;;9.10;99.90;;;;;;5069760;28;20037;-58
2021/11/01 03:20:44;;;;;;;7.05;2.28;;;9.00;99.90;;;;;;5066858;28;20033;-58
2021/11/01 03:23:25;;;;;;;14.23;1.90;;;9.00;99.90;;;;;;5067359;28;20407;-61
2021/11/01 03:25:56;;;;;;;14.82;1.63;;;8.90;99.90;;;;;;5064293;28;20287;-57
2021/11/01 03:28:23;;;;;;;11.15;2.00;;;8.90;99.90;;;;;;5069425;28;20055;-59
2021/11/01 03:30:50;;;;;;;15.75;1.75;;;8.80;99.90;;;;;;5068336;28;20024;-57
2021/11/01 03:33:17;;;;;;;11.43;2.17;;;8.80;99.90;;;;;;5069341;28;20036;-56
2021/11/01 03:35:44;;;;;;;5.20;1.45;;;8.80;99.90;;;;;;5068553;28;20020;-57
2021/11/01 03:38:13;;;;;;;23.10;2.50;;;8.70;99.90;;;;;;5069701;28;20035;-56
2021/11/01 03:40:41;;;;;;;6.38;1.58;;;8.70;99.90;;;;;;5070500;28;20020;-61
2021/11/01 03:43:09;;;;;;;13.93;2.17;;;8.60;99.90;;;;;;5065593;28;20024;-57
2021/11/01 03:45:35;;;;;;;13.85;1.88;;;8.60;99.90;;;;;;5067510;28;20032;-57
2021/11/01 03:48:04;;;;;;;11.10;1.73;;;8.60;99.90;;;;;;5069689;28;20035;-55
2021/11/01 03:50:47;;;;;;;8.75;1.67;;;8.60;99.90;;;;;;5068150;28;20035;-53
2021/11/01 03:53:13;;;;;;;10.18;1.90;;;8.50;99.90;;;;;;5066464;28;20032;-57
2021/11/01 03:55:39;;;;;;;10.43;1.90;;;8.50;99.90;;;;;;5070340;28;20035;-57
2021/11/01 03:58:05;;;;;;;16.85;2.03;;;8.50;99.90;;;;;;5068456;28;20111;-59
2021/11/01 04:00:34;;;;;;;15.98;1.75;;;8.50;99.90;;;;;;5066600;28;20020;-57
2021/11/01 04:03:02;;;;;;;9.77;1.38;;;8.50;99.90;;;;;;5068446;28;20021;-58
2021/11/01 04:05:27;;;;;;;15.10;1.80;;;8.40;99.90;;;;;;5064472;28;20055;-58
2021/11/01 04:07:53;;;;;;;34.45;3.38;;;8.40;99.90;;;;;;5066795;28;20068;-57
2021/11/01 04:10:19;;;;;;;11.50;1.50;;;8.40;99.90;;;;;;5070543;28;20394;-57
2021/11/01 04:12:46;;;;;;;8.52;1.40;;;8.50;99.90;;;;;;5068829;28;20104;-57
2021/11/01 04:15:16;;;;;;;7.90;1.80;;;8.50;99.90;;;;;;5066682;28;20104;-56
2021/11/01 04:18:03;;;;;;;8.20;1.48;;;8.50;99.90;;;;;;5068293;28;20024;-58
2021/11/01 04:21:11;;;;;;;9.38;1.67;;;8.40;99.90;;;;;;5063134;28;20027;-56
2021/11/01 04:23:19;;;;;;;18.48;2.67;;;8.40;99.90;;;;;;5060356;28;20040;-56
2021/11/01 04:25:45;;;;;;;9.30;1.42;;;8.50;99.90;;;;;;5066299;28;20020;-59
2021/11/01 04:28:11;;;;;;;5.88;1.58;;;8.40;99.90;;;;;;5068917;28;20245;-59
2021/11/01 04:30:39;;;;;;;11.15;1.40;;;8.50;99.90;;;;;;5067498;28;20450;-59
2021/11/01 04:33:08;;;;;;;9.30;1.60;;;8.50;99.90;;;;;;5066920;28;20067;-56
2021/11/01 04:35:35;;;;;;;13.55;2.00;;;8.50;99.90;;;;;;5065614;28;20027;-57
2021/11/01 04:53:52;;;;;;;19.00;1.98;;;8.50;99.90;;;;;;5066228;28;20044;-58
2021/11/01 04:56:22;;;;;;;11.38;1.80;;;8.50;99.90;;;;;;5068454;28;20031;-58
2021/11/01 04:58:48;;;;;;;6.97;2.22;;;8.50;99.90;;;;;;5067586;28;20029;-58
2021/11/01 05:01:18;;;;;;;24.63;5.55;;;8.50;99.90;;;;;;5067419;28;20082;-59
2021/11/01 05:03:47;;;;;;;6.40;1.70;;;8.50;99.90;;;;;;5066836;28;20095;-53
2021/11/01 05:06:18;;;;;;;8.93;1.60;;;8.40;99.90;;;;;;5064227;28;20028;-60
2021/11/01 05:08:45;;;;;;;8.55;1.75;;;8.40;99.90;;;;;;5069141;28;20035;-57
2021/11/01 05:11:23;;;;;;;13.52;2.00;;;8.40;99.90;;;;;;5069460;28;20039;-60
2021/11/01 05:13:48;;;;;;;8.80;1.77;;;8.40;99.90;;;;;;5068793;28;20048;-57
2021/11/01 05:16:18;;;;;;;20.20;2.35;;;8.40;99.90;;;;;;5066198;28;20059;-54
2021/11/01 05:23:49;;;;;;;8.27;1.80;;;8.30;99.90;;;;;;5067169;28;20087;-57
2021/11/01 05:26:34;;;;;;;14.93;2.67;;;8.20;99.90;;;;;;5065162;28;20024;-57
2021/11/01 05:29:04;;;;;;;7.82;1.95;;;8.20;99.90;;;;;;5064392;28;20112;-57
2021/11/01 05:31:30;;;;;;;8.68;2.17;;;8.20;99.90;;;;;;5061443;28;20036;-58
2021/11/01 05:34:04;;;;;;;20.65;3.72;;;8.10;99.90;;;;;;5062063;28;20497;-57
2021/11/01 05:36:30;;;;;;;11.85;2.33;;;8.10;99.90;;;;;;5066069;28;20027;-56
2021/11/01 05:38:56;;;;;;;10.52;2.25;;;8.10;99.90;;;;;;5061959;28;20033;-57
2021/11/01 05:41:22;;;;;;;14.05;2.88;;;8.10;99.90;;;;;;5068083;28;20045;-57
2021/11/01 05:43:48;;;;;;;12.73;2.67;;;8.10;99.90;;;;;;5066220;28;20052;-57
2021/11/01 05:46:14;;;;;;;23.33;3.90;;;8.10;99.90;;;;;;5064997;28;20431;-57
2021/11/01 05:48:47;;;;;;;10.50;2.40;;;8.10;99.90;;;;;;5063496;28;20031;-56
2021/11/01 05:51:15;;;;;;;10.55;2.13;;;8.10;99.90;;;;;;5062219;28;20482;-61
2021/11/01 05:53:42;;;;;;;16.48;2.78;;;8.10;99.90;;;;;;5066205;28;20040;-57
2021/11/01 05:56:32;;;;;;;22.08;2.97;;;8.10;99.90;;;;;;5065425;28;20029;-57
2021/11/01 05:59:18;;;;;;;13.50;2.40;;;8.10;99.90;;;;;;5068690;28;20036;-59
2021/11/01 06:02:14;;;;;;;9.50;2.28;;;8.10;99.90;;;;;;5068377;28;20078;-60
2021/11/01 06:09:59;;;;;;;28.73;4.70;;;8.00;99.90;;;;;;5036330;28;20071;-59
2021/11/01 06:15:11;;;;;;;10.98;1.85;;;7.90;99.90;;;;;;5064918;28;20174;-59
2021/11/01 06:17:37;;;;;;;25.17;3.78;;;7.90;99.90;;;;;;5064673;28;20044;-60
2021/11/01 06:20:07;;;;;;;11.90;2.67;;;7.90;99.90;;;;;;5066007;28;20103;-58
2021/11/01 06:22:32;;;;;;;13.45;3.08;;;7.90;99.90;;;;;;5064293;28;20025;-57
2021/11/01 06:25:02;;;;;;;16.75;2.47;;;7.90;99.90;;;;;;5064857;28;20621;-57
2021/11/01 06:27:28;;;;;;;12.60;2.60;;;7.90;99.90;;;;;;5066305;28;20017;-56
2021/11/01 07:15:04;;;;;;;18.38;2.60;;;8.20;99.90;;;;;;5064666;28;20036;-58
2021/11/01 07:17:38;;;;;;;9.50;1.83;;;8.20;99.90;;;;;;5067842;28;20071;-57
2021/11/01 07:38:22;;;;;;;10.02;2.00;;;8.30;99.90;;;;;;5071003;28;20527;-55
2021/11/01 08:29:04;;;;;;;14.57;3.45;;;9.90;99.90;;;;;;5066943;28;20043;-56
2021/11/01 09:11:02;;;;;;;11.68;1.40;;;11.40;99.90;;;;;;5069317;28;20036;-55
2021/11/01 09:13:17;;;;;;;10.27;1.60;;;11.40;99.90;;;;;;5061080;28;20044;-59
2021/11/01 09:18:50;;;;;;;5.32;1.27;;;11.50;99.90;;;;;;5064575;28;20449;-58
2021/11/01 09:28:44;;;;;;;9.18;1.23;;;11.80;99.90;;;;;;5061945;28;20394;-58
2021/11/01 09:37:07;;;;;;;8.00;0.95;;;11.70;99.90;;;;;;5035584;28;20414;-58
2021/11/01 09:42:17;;;;;;;6.47;1.15;;;11.90;99.90;;;;;;5062579;28;20032;-61
2021/11/01 09:44:47;;;;;;;6.25;1.17;;;11.90;99.90;;;;;;5060968;28;20029;-60
2021/11/01 09:47:14;;;;;;;7.57;1.00;;;12.00;99.90;;;;;;5055159;28;20679;-59
2021/11/01 09:49:40;;;;;;;6.05;1.25;;;12.10;99.90;;;;;;5054091;28;20068;-55
2021/11/01 09:52:08;;;;;;;8.05;1.38;;;12.30;99.90;;;;;;5060602;28;20060;-55
2021/11/01 09:54:37;;;;;;;10.30;1.02;;;12.50;99.90;;;;;;5057239;28;20028;-58
2021/11/01 09:57:09;;;;;;;12.93;1.77;;;12.70;99.90;;;;;;5061182;28;20028;-58
2021/11/01 09:59:38;;;;;;;6.82;1.10;;;12.90;99.90;;;;;;5064970;28;20028;-58
2021/11/01 10:02:06;;;;;;;15.23;2.15;;;13.10;99.90;;;;;;5059795;28;20028;-56
2021/11/01 10:04:33;;;;;;;11.60;1.10;;;13.10;99.90;;;;;;5064918;28;20024;-55
2021/11/01 10:07:20;;;;;;;10.18;1.08;;;13.10;99.90;;;;;;5064024;28;20047;-57
2021/11/01 10:09:52;;;;;;;7.47;0.90;;;13.20;99.90;;;;;;5068855;28;20108;-56
2021/11/01 10:12:23;;;;;;;4.93;0.80;;;13.20;99.90;;;;;;5062021;28;20054;-56
2021/11/01 10:14:57;;;;;;;5.53;1.05;;;13.20;99.90;;;;;;5068008;28;20486;-58
2021/11/01 10:17:35;;;;;;;10.23;1.77;;;13.10;99.90;;;;;;5061176;28;20032;-58
2021/11/01 10:20:17;;;;;;;8.18;1.10;;;13.20;99.90;;;;;;5059962;28;20111;-60
2021/11/01 10:22:42;;;;;;;7.18;1.00;;;13.30;99.90;;;;;;5069915;28;20028;-59
2021/11/01 10:25:15;;;;;;;8.95;1.50;;;13.30;99.90;;;;;;5062317;28;20059;-55
2021/11/01 10:27:42;;;;;;;6.68;0.90;;;13.40;99.90;;;;;;5070229;28;20029;-59
2021/11/01 10:30:11;;;;;;;6.63;1.33;;;13.40;99.90;;;;;;5067411;28;20046;-58
2021/11/01 10:32:41;;;;;;;14.75;1.13;;;13.50;99.90;;;;;;5063558;28;20024;-61
2021/11/01 10:35:11;;;;;;;9.75;1.25;;;13.50;99.90;;;;;;5067611;28;20108;-60
2021/11/01 10:37:37;;;;;;;9.55;1.10;;;13.50;99.90;;;;;;5064505;28;20394;-58
2021/11/01 10:40:08;;;;;;;7.45;1.00;;;13.50;99.90;;;;;;5065825;28;20074;-57
2021/11/01 10:42:46;;;;;;;7.93;1.00;;;13.50;99.90;;;;;;5064614;28;20432;-60
2021/11/01 10:56:30;;;;;;;5.13;1.08;;;13.70;99.90;;;;;;5063150;28;20091;-57
2021/11/01 11:12:38;;;;;;;5.57;0.85;;;14.70;99.90;;;;;;5061604;28;20039;-56
2021/11/01 11:15:11;;;;;;;8.23;1.05;;;14.70;99.90;;;;;;5058256;28;20033;-57
2021/11/01 11:17:47;;;;;;;7.07;0.73;;;14.70;99.90;;;;;;5058306;28;20024;-54
2021/11/01 11:39:28;;;;;;;3.95;0.90;;;14.80;99.90;;;;;;5057934;28;20035;-54
2021/11/01 11:47:39;;;;;;;5.45;1.13;;;14.90;99.90;;;;;;5057138;28;20043;-57
2021/11/01 11:50:32;;;;;;;9.07;1.60;;;14.90;99.90;;;;;;5064425;28;20079;-57
2021/11/01 11:53:11;;;;;;;4.97;1.02;;;15.10;99.90;;;;;;5059199;28;20545;-58
2021/11/01 11:55:36;;;;;;;3.33;1.10;;;15.10;99.90;;;;;;5062321;28;20036;-58
2021/11/01 11:58:05;;;;;;;16.48;1.15;;;15.20;99.90;;;;;;5066693;28;20037;-56
2021/11/01 12:00:34;;;;;;;4.50;0.82;;;15.20;99.90;;;;;;5054654;28;20021;-55
2021/11/01 12:03:14;;;;;;;5.88;1.10;;;15.30;99.90;;;;;;5059230;28;20017;-60
2021/11/01 12:05:49;;;;;;;8.00;1.10;;;15.40;99.90;;;;;;5064896;28;20386;-57
2021/11/01 12:08:22;;;;;;;7.57;1.25;;;15.30;99.90;;;;;;5066768;28;20032;-60
2021/11/01 12:18:57;;;;;;;5.00;0.90;;;15.50;99.90;;;;;;5061142;28;20036;-60
2021/11/01 12:21:23;;;;;;;5.30;1.20;;;15.50;99.90;;;;;;5066424;28;20044;-60
2021/11/01 12:23:51;;;;;;;5.47;1.00;;;15.60;99.90;;;;;;5062625;28;20024;-60
2021/11/01 12:26:20;;;;;;;7.40;1.38;;;15.70;99.90;;;;;;5066330;28;20028;-55
2021/11/01 12:28:54;;;;;;;6.03;0.90;;;15.70;99.90;;;;;;5057184;28;20082;-56
2021/11/01 12:31:20;;;;;;;5.93;1.42;;;15.60;99.90;;;;;;5059238;28;20486;-58
2021/11/01 12:36:15;;;;;;;5.75;1.20;;;15.70;99.90;;;;;;5067172;28;20028;-59
2021/11/01 12:38:47;;;;;;;2.67;0.90;;;15.70;99.90;;;;;;5065813;28;20017;-57
2021/11/01 12:41:35;;;;;;;8.43;1.15;;;15.60;99.90;;;;;;5065882;28;20056;-58
2021/11/01 12:50:03;;;;;;;8.40;1.38;;;15.70;99.90;;;;;;5088750;23;20082;-62
2021/11/01 12:58:00;;;;;;;6.28;0.95;;;15.40;99.90;;;;;;5060023;28;20117;-62
2021/11/01 13:00:37;;;;;;;3.60;0.75;;;15.40;99.90;;;;;;5063755;28;20711;-62
2021/11/01 13:03:22;;;;;;;6.50;1.00;;;15.50;99.90;;;;;;5066892;28;20021;-62
2021/11/01 13:05:54;;;;;;;5.80;1.30;;;15.50;99.90;;;;;;5064959;28;20048;-58
2021/11/01 13:08:28;;;;;;;4.65;0.80;;;15.50;99.90;;;;;;5064526;28;20035;-60
2021/11/01 13:13:48;;;;;;;3.72;0.88;;;15.40;99.90;;;;;;5064630;28;20509;-61
2021/11/01 13:19:16;;;;;;;6.18;1.08;;;15.30;99.90;;;;;;5068219;28;20107;-61
2021/11/01 13:21:54;;;;;;;9.15;1.50;;;15.30;99.90;;;;;;5068005;28;20020;-63
2021/11/01 13:24:24;;;;;;;8.20;1.27;;;15.30;99.90;;;;;;5064028;28;20386;-62
2021/11/01 13:35:29;;;;;;;8.25;1.00;;;15.40;99.90;;;;;;5067098;28;20061;-63
2021/11/01 13:38:06;;;;;;;7.05;1.10;;;15.40;99.90;;;;;;5064882;28;20406;-61
2021/11/01 13:40:34;;;;;;;5.55;0.93;;;15.30;99.90;;;;;;5065148;28;20031;-63
2021/11/01 13:43:00;;;;;;;6.63;0.75;;;15.40;99.90;;;;;;5060635;28;20139;-61
2021/11/01 13:45:26;;;;;;;12.35;1.02;;;15.40;99.90;;;;;;5062971;28;20664;-61
2021/11/01 13:47:59;;;;;;;6.47;1.00;;;15.50;99.90;;;;;;5061888;28;20553;-63
2021/11/01 13:50:28;;;;;;;5.50;1.00;;;15.50;99.90;;;;;;5065704;28;20036;-63
2021/11/01 13:52:56;;;;;;;5.75;1.13;;;15.50;99.90;;;;;;5064748;28;20112;-62
2021/11/01 13:55:43;;;;;;;13.90;1.17;;;15.50;99.90;;;;;;5065968;28;20100;-61
2021/11/01 13:58:33;;;;;;;2.88;0.90;;;15.60;99.90;;;;;;5074372;28;20085;-63
2021/11/01 14:01:32;;;;;;;8.95;1.00;;;15.60;99.90;;;;;;5075964;28;20054;-62
2021/11/01 14:14:45;;;;;;;7.47;1.00;;;15.20;99.90;;;;;;5067286;28;20039;-61
2021/11/01 15:19:13;;;;;;;9.40;1.60;;;13.90;99.90;;;;;;5070258;28;20089;-60
2021/11/01 15:34:50;;;;;;;21.13;1.52;;;13.60;99.90;;;;;;5065011;28;20120;-60
2021/11/01 15:37:41;;;;;;;13.27;1.45;;;13.60;99.90;;;;;;5048309;28;20036;-62
2021/11/01 16:15:29;;;;;;;7.55;1.25;;;13.20;99.90;;;;;;5060532;28;20040;-61
2021/11/01 16:18:13;;;;;;;6.55;1.13;;;11.60;99.90;;;;;;5060744;28;20489;-62
2021/11/01 16:20:40;;;;;;;9.10;1.40;;;11.50;99.90;;;;;;5057907;28;20021;-65
2021/11/01 16:25:44;;;;;;;11.38;1.33;;;11.40;99.90;;;;;;5061593;28;20017;-60
2021/11/01 16:28:13;;;;;;;6.65;1.17;;;11.30;99.90;;;;;;5062677;28;20391;-60
2021/11/01 16:30:44;;;;;;;7.72;1.30;;;11.30;99.90;;;;;;5061883;28;20406;-61
2021/11/01 16:33:10;;;;;;;8.13;1.52;;;11.20;99.90;;;;;;5057520;28;20128;-63
2021/11/01 16:35:40;;;;;;;4.95;0.98;;;11.10;99.90;;;;;;5044329;28;20702;-60
2021/11/01 16:40:33;;;;;;;8.93;1.20;;;10.90;99.90;;;;;;5060774;28;20116;-62
2021/11/01 16:42:59;;;;;;;8.23;1.35;;;10.90;99.90;;;;;;5063901;28;20024;-62
2021/11/01 16:45:28;;;;;;;5.38;1.30;;;10.90;99.90;;;;;;5063568;28;20020;-64
2021/11/01 16:47:56;;;;;;;6.00;1.25;;;10.80;99.90;;;;;;5060604;28;20028;-63
2021/11/01 16:50:22;;;;;;;6.97;1.23;;;10.80;99.90;;;;;;5062528;28;20512;-63
2021/11/01 16:52:49;;;;;;;11.68;1.70;;;10.80;99.90;;;;;;5059395;28;20029;-63
2021/11/01 16:55:38;;;;;;;6.70;1.48;;;10.70;99.90;;;;;;5064105;28;20048;-65
2021/11/01 16:58:20;;;;;;;11.95;1.58;;;10.70;99.90;;;;;;5061348;28;20024;-61
2021/11/01 17:01:00;;;;;;;21.58;2.58;;;10.60;99.90;;;;;;5060693;28;20410;-62
2021/11/01 17:27:44;;;;;;;6.88;2.60;;;9.90;99.90;;;;;;5066657;28;20036;-61
2021/11/01 17:30:35;;;;;;;;;;;9.90;99.90;;;;;;5062525;28;20057;-62
2021/11/01 18:53:34;;;;;;;8.30;2.08;;;9.10;99.90;;;;;;5064158;28;20073;-63
2021/11/01 18:56:03;;;;;;;6.88;2.03;;;9.10;99.90;;;;;;5066415;28;20036;-61
2021/11/01 18:58:33;;;;;;;9.20;2.67;;;9.10;99.90;;;;;;5065099;28;20145;-63
2021/11/01 19:00:59;;;;;;;2.95;1.50;;;9.00;99.90;;;;;;5065423;28;20097;-61
2021/11/01 19:03:28;;;;;;;18.20;2.72;;;9.00;99.90;;;;;;5065014;28;20082;-62
2021/11/01 19:06:09;;;;;;;14.95;3.20;;;9.00;99.90;;;;;;5065506;28;20032;-62
2021/11/01 19:12:17;;;;;;;13.65;3.17;;;8.90;99.90;;;;;;5066728;28;20060;-61
2021/11/01 20:04:10;;;;;;;9.82;1.88;;;8.20;99.90;;;;;;5059237;28;20043;-62
2021/11/01 21:24:30;;;;;;;13.57;2.40;;;8.20;99.90;;;;;;5064701;28;20119;-63
2021/11/01 21:26:36;;;;;;;20.13;3.47;;;8.00;99.90;;;;;;5060816;28;20050;-62
2021/11/01 21:29:02;;;;;;;18.92;3.65;;;8.00;99.90;;;;;;5065997;28;20522;-62
2021/11/01 21:31:28;;;;;;;20.27;2.97;;;8.00;99.90;;;;;;5065801;28;20029;-63
2021/11/01 21:33:56;;;;;;;15.70;2.13;;;8.00;99.90;;;;;;5064309;28;20032;-62
2021/11/01 21:36:25;;;;;;;8.73;2.38;;;8.00;99.90;;;;;;5064461;28;20032;-62
2021/11/01 21:38:52;;;;;;;14.43;2.00;;;7.90;99.90;;;;;;5078563;22;20059;-58
2021/11/01 21:41:17;;;;;;;10.10;2.15;;;7.90;99.90;;;;;;5062125;28;20048;-55
2021/11/01 21:43:43;;;;;;;12.57;2.45;;;7.90;99.90;;;;;;5064477;28;20111;-56
2021/11/01 21:46:09;;;;;;;9.43;2.05;;;7.90;99.90;;;;;;5064111;28;20035;-55
2021/11/01 21:48:34;;;;;;;14.25;2.83;;;7.90;99.90;;;;;;5061425;28;20449;-57
2021/11/01 21:51:00;;;;;;;16.95;2.83;;;8.00;99.90;;;;;;5065129;28;20037;-55
2021/11/01 21:53:26;;;;;;;19.35;2.83;;;8.10;99.90;;;;;;5059046;28;20074;-57
2021/11/01 21:55:52;;;;;;;9.10;2.22;;;8.10;99.90;;;;;;5063182;28;20032;-55
2021/11/01 21:58:33;;;;;;;7.85;1.88;;;8.20;99.90;;;;;;5065718;28;20032;-54
2021/11/01 22:01:09;;;;;;;11.93;3.50;;;8.20;99.90;;;;;;5059451;28;20111;-55
2021/11/01 22:17:33;;;;;;;7.95;2.00;;;8.10;99.90;;;;;;5067016;28;20043;-55
2021/11/01 22:20:12;;;;;;;12.27;2.00;;;8.10;99.90;;;;;;5071079;28;20021;-57
2021/11/01 22:25:44;;;;;;;7.88;2.20;;;8.10;99.90;;;;;;5066405;28;20085;-59
2021/11/01 22:34:17;;;;;;;22.77;3.50;;;8.10;99.90;;;;;;4964941;28;20153;-56
2021/11/01 22:42:12;;;;;;;12.98;3.85;;;8.00;99.90;;;;;;5064581;28;20060;-59
2021/11/01 22:47:24;;;;;;;12.88;2.50;;;7.90;99.90;;;;;;5065982;28;20111;-57
2021/11/01 22:58:03;;;;;;;5.82;3.15;;;7.80;99.90;;;;;;5066138;28;20116;-57
2021/11/01 23:00:37;;;;;;;9.82;3.45;;;7.80;99.90;;;;;;5066799;28;20463;-57
2021/11/01 23:03:42;;;;;;;6.53;2.42;;;7.90;99.90;;;;;;5070083;28;20024;-54
2021/11/01 23:33:13;;;;;;;7.35;1.67;;;8.00;99.90;;;;;;5066232;28;20415;-57
2021/11/01 23:35:39;;;;;;;7.03;1.95;;;8.00;99.90;;;;;;5066929;28;20485;-53
2021/11/01 23:38:05;;;;;;;14.63;2.72;;;8.00;99.90;;;;;;5069170;28;20036;-57
2021/11/01 23:40:30;;;;;;;21.58;3.08;;;8.10;99.90;;;;;;5069307;28;20021;-57
2021/11/01 23:42:56;;;;;;;8.00;2.30;;;8.20;99.90;;;;;;5051437;28;20028;-54
2021/11/01 23:45:21;;;;;;;10.23;2.85;;;8.20;99.90;;;;;;5063314;28;20632;-57
2021/11/01 23:47:47;;;;;;;9.48;2.00;;;8.20;99.90;;;;;;5067426;28;20032;-56
2021/11/01 23:50:13;;;;;;;15.02;2.65;;;8.30;99.90;;;;;;5061620;28;20029;-59
2021/11/01 23:52:54;;;;;;;8.60;2.05;;;8.30;99.90;;;;;;5066091;28;20036;-59
2021/11/01 23:55:19;;;;;;;20.20;4.25;;;8.30;99.90;;;;;;5064724;28;20040;-57
2021/11/01 23:57:45;;;;;;;10.95;1.75;;;8.40;99.90;;;;;;5066934;28;20430;-56
